Northborough, MA (01532)

7:18 PM EST on December 24, 2014 (GMT -0500)
Pinehaven | Change Station
CLOSE
Current Station
Personal Weather Station
Location: Northborough, MA
Elevation: 314 ft
Nearby Weather Stations
Active Advisory: Areal Flood Watch

Elev 314 ft 42.31 °N, 71.66 °W | Updated 15 seconds ago

Rain
Rain Mist
40.3 °F
Feels Like 40 °F
N
0.0
Wind Variable Wind from WNW
Gusts 0.0 mph

Today
High -- | Low -- °F
--% Chance of Precip.
Yesterday
High -- | Low -- °F
Precip. -- in
7:13 AM 4:18 PM
Waxing Crescent, 12% visible
Pressure 29.72 in
Visibility 1.2 miles
Clouds Overcast 500 ft
Windchill 40 °F
Dew Point 38 °F
Humidity 90%
Rainfall 0.20 in
Snow Depth Not available.
UV 0 out of 12
Pollen .10 out of 12
Air Quality Not available.
Flu Activity Not available.
SPECI KORH 250000Z 03006KT 1 1/4SM RA BR OVC005 04/04 A2972 RMK AO2 P0001 T00390039

More Conditions Fewer Conditions

Pressure 29.72 in
Visibility 1.2 miles
Clouds Overcast 500 ft
Windchill 40 °F
Dew Point 38 °F
Humidity 90%
Rainfall 0.20 in
Snow Depth Not available.
UV 0 out of 12
Pollen .10 out of 12
Air Quality Not available.
Flu Activity Not available.
SPECI KORH 250000Z 03006KT 1 1/4SM RA BR OVC005 04/04 A2972 RMK AO2 P0001 T00390039

More Conditions Fewer Conditions

10-Day Weather Forecast

Almanac

Astronomy

Dec. 24, 2014 Rise Set
Actual Time
Civil Twilight
Nautical Twilight
Astronomical Twilight
Moon
Length of Visible Light
Length of Day
Tomorrow will be .
, % of the Moon is Illuminated

Today's Extremes

State Highs State Lows

Community

WunderPhotos

Upload Photos

1,780,188 photos uploaded!

WunderBlogs® & News

Nearby

Air Quality

  Air Quality AQ Index Pollutant
Not available.

Snow Depth

Station Depth Elevation

Earthquake Activity

City Distance Mag. Time & Date
Minimum magnitude displayed is 2.5.

Coastal Water Temperatures

Place Temperature

Nearby Weather Stations